地図

経路データ

SID SEASON NUMBER BASIN SUBBASIN NAME ISO_TIME NATURE LAT LON WMO_WIND WMO_PRES WMO_AGENCY TRACK_TYPE DIST2LAND LANDFALL IFLAG USA_AGENCY USA_ATCF_ID USA_LAT USA_LON USA_RECORD USA_STATUS USA_WIND USA_PRES USA_SSHS USA_R34_NE USA_R34_SE USA_R34_SW USA_R34_NW USA_R50_NE USA_R50_SE USA_R50_SW USA_R50_NW USA_R64_NE USA_R64_SE USA_R64_SW USA_R64_NW USA_POCI USA_ROCI USA_RMW USA_EYE TOKYO_LAT TOKYO_LON TOKYO_GRADE TOKYO_WIND TOKYO_PRES TOKYO_R50_DIR TOKYO_R50_LONG TOKYO_R50_SHORT TOKYO_R30_DIR TOKYO_R30_LONG TOKYO_R30_SHORT TOKYO_LAND CMA_LAT CMA_LON CMA_CAT CMA_WIND CMA_PRES HKO_LAT HKO_LON HKO_CAT HKO_WIND HKO_PRES NEWDELHI_LAT NEWDELHI_LON NEWDELHI_GRADE NEWDELHI_WIND NEWDELHI_PRES NEWDELHI_CI NEWDELHI_DP NEWDELHI_POCI REUNION_LAT REUNION_LON REUNION_TYPE REUNION_WIND REUNION_PRES REUNION_TNUM REUNION_CI REUNION_RMW REUNION_R34_NE REUNION_R34_SE REUNION_R34_SW REUNION_R34_NW REUNION_R50_NE REUNION_R50_SE REUNION_R50_SW REUNION_R50_NW REUNION_R64_NE REUNION_R64_SE REUNION_R64_SW REUNION_R64_NW BOM_LAT BOM_LON BOM_TYPE BOM_WIND BOM_PRES BOM_TNUM BOM_CI BOM_RMW BOM_R34_NE BOM_R34_SE BOM_R34_SW BOM_R34_NW BOM_R50_NE BOM_R50_SE BOM_R50_SW BOM_R50_NW BOM_R64_NE BOM_R64_SE BOM_R64_SW BOM_R64_NW BOM_ROCI BOM_POCI BOM_EYE BOM_POS_METHOD BOM_PRES_METHOD NADI_LAT NADI_LON NADI_CAT NADI_WIND NADI_PRES WELLINGTON_LAT WELLINGTON_LON WELLINGTON_WIND WELLINGTON_PRES DS824_LAT DS824_LON DS824_STAGE DS824_WIND DS824_PRES TD9636_LAT TD9636_LON TD9636_STAGE TD9636_WIND TD9636_PRES TD9635_LAT TD9635_LON TD9635_WIND TD9635_PRES TD9635_ROCI NEUMANN_LAT NEUMANN_LON NEUMANN_CLASS NEUMANN_WIND NEUMANN_PRES MLC_LAT MLC_LON MLC_CLASS MLC_WIND MLC_PRES USA_GUST BOM_GUST BOM_GUST_PER REUNION_GUST REUNION_GUST_PER USA_SEAHGT USA_SEARAD_NE USA_SEARAD_SE USA_SEARAD_SW USA_SEARAD_NW STORM_SPEED STORM_DIR
1922258N17129 1922 50 WP MM NOT_NAMED 1922-09-14 22:00:00 NR 16.8000 129.100 main 599 579 __________O___ -1 16.8000 129.100 3 8 296
1922258N17129 1922 50 WP MM NOT_NAMED 1922-09-15 00:00:00 NR 16.9193 128.843 main 579 566 __________P___ -1 16.9193 128.843 3 8 296
1922258N17129 1922 50 WP MM NOT_NAMED 1922-09-15 03:00:00 NR 17.0969 128.460 main 566 541 __________P___ -1 17.0969 128.460 3 8 296
1922258N17129 1922 50 WP MM NOT_NAMED 1922-09-15 06:00:00 NR 17.2721 128.083 main 549 526 __________P___ -1 17.2721 128.083 3 8 296
1922258N17129 1922 50 WP MM NOT_NAMED 1922-09-15 09:00:00 NR 17.4437 127.718 main 526 527 __________P___ -1 17.4437 127.718 3 8 296
1922258N17129 1922 50 WP MM NOT_NAMED 1922-09-15 10:00:00 NR 17.5000 127.600 main 527 520 __________O___ -1 17.5000 127.600 4 7 297
1922258N17129 1922 50 WP MM NOT_NAMED 1922-09-15 12:00:00 NR 17.6108 127.369 main 521 485 __________P___ -1 17.6108 127.369 4 7 297
1922258N17129 1922 50 WP MM NOT_NAMED 1922-09-15 15:00:00 NR 17.7709 127.036 main 485 456 __________P___ -1 17.7709 127.036 4 7 296
1922258N17129 1922 50 WP MM NOT_NAMED 1922-09-15 18:00:00 NR 17.9210 126.714 main 456 428 __________P___ -1 17.9210 126.714 4 7 295
1922258N17129 1922 50 WP MM NOT_NAMED 1922-09-15 21:00:00 NR 18.0579 126.402 main 431 421 __________P___ -1 18.0579 126.402 4 7 295
1922258N17129 1922 50 WP MM NOT_NAMED 1922-09-15 22:00:00 NR 18.1000 126.300 main 421 401 __________O___ -1 18.1000 126.300 4 6 293
1922258N17129 1922 50 WP MM NOT_NAMED 1922-09-16 00:00:00 NR 18.1805 126.097 main 401 369 __________P___ -1 18.1805 126.097 4 6 292
1922258N17129 1922 50 WP MM NOT_NAMED 1922-09-16 03:00:00 NR 18.2889 125.798 main 369 337 __________P___ -1 18.2889 125.798 4 6 290
1922258N17129 1922 50 WP MM NOT_NAMED 1922-09-16 06:00:00 NR 18.3851 125.502 main 337 306 __________P___ -1 18.3851 125.502 4 6 288
1922258N17129 1922 50 WP MM NOT_NAMED 1922-09-16 09:00:00 NR 18.4724 125.202 main 306 295 __________P___ -1 18.4724 125.202 4 6 287
1922258N17129 1922 50 WP MM NOT_NAMED 1922-09-16 10:00:00 NR 18.5000 125.100 main 295 274 __________O___ -1 18.5000 125.100 4 6 288
1922258N17129 1922 50 WP MM NOT_NAMED 1922-09-16 12:00:00 NR 18.5661 124.892 main 275 243 __________P___ -1 18.5661 124.892 4 6 288
1922258N17129 1922 50 WP MM NOT_NAMED 1922-09-16 15:00:00 NR 18.6592 124.573 main 244 203 __________P___ -1 18.6592 124.573 4 6 286
1922258N17129 1922 50 WP MM NOT_NAMED 1922-09-16 18:00:00 NR 18.7368 124.247 main 203 174 __________P___ -1 18.7368 124.247 4 6 282
1922258N17129 1922 50 WP MM NOT_NAMED 1922-09-16 21:00:00 NR 18.7896 123.913 main 174 164 __________P___ -1 18.7896 123.913 4 6 278
1922258N17129 1922 50 WP MM NOT_NAMED 1922-09-16 22:00:00 NR 18.8000 123.800 main 164 144 __________O___ -1 18.8000 123.800 4 6 275
1922258N17129 1922 50 WP MM NOT_NAMED 1922-09-17 00:00:00 NR 18.8165 123.578 main 144 104 __________P___ -1 18.8165 123.578 4 6 272
1922258N17129 1922 50 WP MM NOT_NAMED 1922-09-17 03:00:00 NR 18.8163 123.238 main 104 77 __________P___ -1 18.8163 123.238 4 7 267
1922258N17129 1922 50 WP MM NOT_NAMED 1922-09-17 06:00:00 NR 18.7863 122.888 main 77 39 __________P___ -1 18.7863 122.888 4 7 262
1922258N17129 1922 50 WP MM NOT_NAMED 1922-09-17 09:00:00 NR 18.7265 122.525 main 39 35 __________P___ -1 18.7265 122.525 4 7 259
1922258N17129 1922 50 WP MM NOT_NAMED 1922-09-17 10:00:00 NR 18.7000 122.400 main 35 22 __________O___ -1 18.7000 122.400 3 8 258
1922258N17129 1922 50 WP MM NOT_NAMED 1922-09-17 12:00:00 NR 18.6449 122.129 main 22 15 __________P___ -1 18.6449 122.129 3 8 256
1922258N17129 1922 50 WP MM NOT_NAMED 1922-09-17 15:00:00 NR 18.5371 121.709 main 15 0 __________P___ -1 18.5371 121.709 3 8 253
1922258N17129 1922 50 WP MM NOT_NAMED 1922-09-17 18:00:00 NR 18.4045 121.297 main 0 0 __________P___ -1 18.4045 121.297 3 8 249
1922258N17129 1922 50 WP MM NOT_NAMED 1922-09-17 21:00:00 NR 18.2534 120.916 main 0 0 __________P___ -1 18.2534 120.916 3 8 247
1922258N17129 1922 50 WP MM NOT_NAMED 1922-09-17 22:00:00 NR 18.2000 120.800 main 0 0 __________O___ -1 18.2000 120.800 4 7 244
1922258N17129 1922 50 WP MM NOT_NAMED 1922-09-18 00:00:00 NR 18.1023 120.594 main 0 0 __________P___ -1 18.1023 120.594 4 6 241
1922258N17129 1922 50 WP MM NOT_NAMED 1922-09-18 03:00:00 NR 17.9437 120.323 main 21 21 __________P___ -1 17.9437 120.323 4 6 235
1922258N17129 1922 50 WP MM NOT_NAMED 1922-09-18 06:00:00 NR 17.7675 120.085 main 30 23 __________P___ -1 17.7675 120.085 4 6 229
1922258N17129 1922 50 WP MM NOT_NAMED 1922-09-18 09:00:00 NR 17.5708 119.869 main 42 42 __________P___ -1 17.5708 119.869 4 6 225
1922258N17129 1922 50 WP MM NOT_NAMED 1922-09-18 10:00:00 NR 17.5000 119.800 main 54 54 __________O___ -1 17.5000 119.800 4 6 220
1922258N17129 1922 50 WP MM NOT_NAMED 1922-09-18 12:00:00 NR 17.3476 119.671 main 71 71 __________P___ -1 17.3476 119.671 4 6 216
1922258N17129 1922 50 WP MM NOT_NAMED 1922-09-18 15:00:00 NR 17.1001 119.491 main 95 77 __________P___ -1 17.1001 119.491 4 6 215
1922258N17129 1922 50 WP MM NOT_NAMED 1922-09-18 18:00:00 NR 16.8413 119.304 main 77 77 __________P___ -1 16.8413 119.304 4 6 217
1922258N17129 1922 50 WP MM NOT_NAMED 1922-09-18 21:00:00 NR 16.5835 119.084 main 81 81 __________P___ -1 16.5835 119.084 4 7 220
1922258N17129 1922 50 WP MM NOT_NAMED 1922-09-18 22:00:00 NR 16.5000 119.000 main 88 88 __________O___ -1 16.5000 119.000 4 8 225
1922258N17129 1922 50 WP MM NOT_NAMED 1922-09-19 00:00:00 NR 16.3180 118.809 main 101 101 __________P___ -1 16.3180 118.809 4 8 228
1922258N17129 1922 50 WP MM NOT_NAMED 1922-09-19 03:00:00 NR 16.0508 118.484 main 128 128 __________P___ -1 16.0508 118.484 4 8 233
1922258N17129 1922 50 WP MM NOT_NAMED 1922-09-19 06:00:00 NR 15.8154 118.122 main 172 172 __________P___ -1 15.8154 118.122 4 8 240
1922258N17129 1922 50 WP MM NOT_NAMED 1922-09-19 09:00:00 NR 15.6402 117.734 main 218 218 __________P___ -1 15.6402 117.734 4 8 247
1922258N17129 1922 50 WP MM NOT_NAMED 1922-09-19 10:00:00 NR 15.6000 117.600 main 229 229 __________O___ -1 15.6000 117.600 4 8 257
1922258N17129 1922 50 WP MM NOT_NAMED 1922-09-19 12:00:00 NR 15.5441 117.308 main 262 262 __________P___ -1 15.5441 117.308 4 9 264
1922258N17129 1922 50 WP MM NOT_NAMED 1922-09-19 15:00:00 NR 15.5229 116.850 main 315 315 __________P___ -1 15.5229 116.850 4 9 271
1922258N17129 1922 50 WP MM NOT_NAMED 1922-09-19 18:00:00 NR 15.5655 116.404 main 356 356 __________P___ -1 15.5655 116.404 4 8 280
1922258N17129 1922 50 WP MM NOT_NAMED 1922-09-19 21:00:00 NR 15.6594 116.012 main 397 397 __________P___ -1 15.6594 116.012 4 8 285
1922258N17129 1922 50 WP MM NOT_NAMED 1922-09-19 22:00:00 NR 15.7000 115.900 main 408 408 __________O___ -1 15.7000 115.900 4 6 294
1922258N17129 1922 50 WP MM NOT_NAMED 1922-09-20 00:00:00 NR 15.7820 115.724 main 428 428 __________P___ -1 15.7820 115.724 4 5 304
1922258N17129 1922 50 WP MM NOT_NAMED 1922-09-20 03:00:00 NR 15.9433 115.522 main 449 449 __________P___ -1 15.9433 115.522 4 5 316
1922258N17129 1922 50 WP MM NOT_NAMED 1922-09-20 06:00:00 NR 16.1336 115.371 main 459 459 __________P___ -1 16.1336 115.371 4 5 325
1922258N17129 1922 50 WP MM NOT_NAMED 1922-09-20 09:00:00 NR 16.3342 115.243 main 481 481 __________P___ -1 16.3342 115.243 4 5 329
1922258N17129 1922 50 WP MM NOT_NAMED 1922-09-20 10:00:00 NR 16.4000 115.200 main 482 482 __________O___ -1 16.4000 115.200 4 4 322
1922258N17129 1922 50 WP MM NOT_NAMED 1922-09-20 12:00:00 NR 16.4796 115.128 main 494 494 __________P___ -1 16.4796 115.128 4 3 320
1922258N17129 1922 50 WP MM NOT_NAMED 1922-09-20 15:00:00 NR 16.5983 115.026 main 506 506 __________P___ -1 16.5983 115.026 4 4 321
1922258N17129 1922 50 WP MM NOT_NAMED 1922-09-20 18:00:00 NR 16.7553 114.895 main 516 487 __________P___ -1 16.7553 114.895 4 5 321
1922258N17129 1922 50 WP MM NOT_NAMED 1922-09-20 21:00:00 NR 16.9944 114.692 main 487 471 __________P___ -1 16.9944 114.692 4 7 321
1922258N17129 1922 50 WP MM NOT_NAMED 1922-09-20 22:00:00 NR 17.1000 114.600 main 471 434 __________O___ -1 17.1000 114.600 4 10 320
1922258N17129 1922 50 WP MM NOT_NAMED 1922-09-21 00:00:00 NR 17.3705 114.356 main 434 359 __________P___ -1 17.3705 114.356 4 12 319
1922258N17129 1922 50 WP MM NOT_NAMED 1922-09-21 03:00:00 NR 17.8643 113.907 main 359 285 __________P___ -1 17.8643 113.907 4 14 319
1922258N17129 1922 50 WP MM NOT_NAMED 1922-09-21 06:00:00 NR 18.4247 113.397 main 285 210 __________P___ -1 18.4247 113.397 4 15 319
1922258N17129 1922 50 WP MM NOT_NAMED 1922-09-21 09:00:00 NR 19.0080 112.871 main 210 183 __________P___ -1 19.0080 112.871 4 15 320
1922258N17129 1922 50 WP MM NOT_NAMED 1922-09-21 10:00:00 NR 19.2000 112.700 main 183 146 __________O___ -1 19.2000 112.700 4 15 320
1922258N17129 1922 50 WP MM NOT_NAMED 1922-09-21 12:00:00 NR 19.5735 112.371 main 146 106 __________P___ -1 19.5735 112.371 4 14 321
1922258N17129 1922 50 WP MM NOT_NAMED 1922-09-21 15:00:00 NR 20.1107 111.907 main 106 91 __________P___ -1 20.1107 111.907 4 14 321
1922258N17129 1922 50 WP MM NOT_NAMED 1922-09-21 18:00:00 NR 20.6277 111.468 main 91 38 __________P___ -1 20.6277 111.468 4 13 322
1922258N17129 1922 50 WP MM NOT_NAMED 1922-09-21 21:00:00 NR 21.1329 111.041 main 38 15 __________P___ -1 21.1329 111.041 4 13 322
1922258N17129 1922 50 WP MM NOT_NAMED 1922-09-21 22:00:00 NR 21.3000 110.900 main 15 __________O___ -1 21.3000 110.900 4 13 322

デジタル台風データ・検索

IBTrACS Databaseについて

本データベースは、米国NOAAが公開する1842年以降の世界の熱帯低気圧のベストトラックデータアーカイブInternational Best Track Archive for Climate Stewardship (IBTrACS)を、ウェブで閲覧しやすい形式に変換したものです。

最終更新日:2021-11-26